Time;durP1;ratioP1;P1;durP2;ratioP2;P2;SDS_P1;SDS_P2;PMS_P1;PMS_P2;Temp;Humidity;BMP_temperature;BMP_pressure;BME280_temperature;BME280_humidity;BME280_pressure;Samples;Min_cycle;Max_cycle;Signal;HPM_P1;HPM_P2
2021/11/20 00:00:32;;;;;;;17.45;14.10;;;;;;;6.76;85.34;99377.66;1759860;81;21832;-66
2021/11/20 00:02:59;;;;;;;17.87;14.60;;;;;;;6.75;85.35;99374.17;1738184;82;21437;-65
2021/11/20 00:05:32;;;;;;;17.02;13.75;;;;;;;6.76;85.34;99369.30;1725605;81;21357;-65
2021/11/20 00:08:00;;;;;;;18.45;15.23;;;;;;;6.78;85.36;99356.89;1738870;81;20973;-65
2021/11/20 00:10:29;;;;;;;18.87;15.43;;;;;;;6.80;85.35;99354.13;1739845;81;20941;-65
2021/11/20 00:12:57;;;;;;;18.30;13.50;;;;;;;6.81;85.39;99343.51;1717918;82;21855;-65
2021/11/20 00:15:29;;;;;;;18.25;14.25;;;;;;;6.83;85.40;99346.01;1738934;81;21052;-65
2021/11/20 00:17:57;;;;;;;16.65;13.45;;;;;;;6.83;85.40;99336.34;1741014;81;21028;-66
2021/11/20 00:20:25;;;;;;;18.20;14.85;;;;;;;6.86;85.41;99333.48;1735860;81;21411;-66
2021/11/20 00:22:52;;;;;;;15.65;13.93;;;;;;;6.88;85.40;99323.69;1725785;82;21061;-65
2021/11/20 00:25:24;;;;;;;14.83;13.22;;;;;;;6.91;85.41;99317.84;1715933;81;21874;-65
2021/11/20 00:27:54;;;;;;;20.20;15.23;;;;;;;6.93;85.43;99298.85;1724965;82;21043;-66
2021/11/20 00:30:25;;;;;;;15.20;13.35;;;;;;;6.95;85.39;99306.11;1734550;82;20965;-65
2021/11/20 00:32:59;;;;;;;22.80;18.05;;;;;;;6.95;85.37;99298.23;1727079;81;21566;-66
2021/11/20 00:35:31;;;;;;;16.87;14.53;;;;;;;6.97;85.37;99296.34;1730766;82;21012;-65
2021/11/20 00:37:57;;;;;;;15.90;13.75;;;;;;;6.97;85.35;99287.16;1741401;81;22455;-65
2021/11/20 00:40:37;;;;;;;16.70;13.60;;;;;;;6.98;85.31;99281.78;1733830;81;21045;-65
2021/11/20 00:43:04;;;;;;;14.70;13.13;;;;;;;6.99;85.22;99273.42;1730400;82;21004;-65
2021/11/20 00:45:32;;;;;;;17.17;14.38;;;;;;;7.01;85.23;99272.81;1742584;81;20961;-65
2021/11/20 00:47:58;;;;;;;14.98;13.48;;;;;;;7.00;85.17;99269.84;1733887;81;21028;-66
2021/11/20 00:50:26;;;;;;;15.03;13.40;;;;;;;7.00;85.14;99264.10;1740260;81;22631;-66
2021/11/20 00:52:53;;;;;;;14.13;12.70;;;;;;;7.01;85.11;99255.74;1738222;82;21088;-65
2021/11/20 00:55:24;;;;;;;16.02;13.40;;;;;;;7.02;85.09;99256.09;1743608;81;21004;-65
2021/11/20 00:57:52;;;;;;;14.23;12.73;;;;;;;7.01;85.04;99247.88;1733394;81;21013;-66
2021/11/20 01:00:22;;;;;;;13.83;12.43;;;;;;;7.02;85.00;99252.98;1732071;82;20964;-65
2021/11/20 01:02:50;;;;;;;14.18;12.78;;;;;;;7.02;84.99;99247.73;1738268;82;21820;-65
2021/11/20 01:05:17;;;;;;;13.65;12.23;;;;;;;7.02;84.98;99246.42;1730474;81;20989;-65
2021/11/20 01:07:46;;;;;;;14.00;12.50;;;;;;;7.03;84.97;99237.59;1744845;81;21127;-65
2021/11/20 01:10:15;;;;;;;15.68;13.55;;;;;;;7.03;84.95;99232.33;1745372;81;21551;-66
2021/11/20 01:12:43;;;;;;;17.23;13.30;;;;;;;7.01;84.95;99225.07;1730980;81;21482;-65
2021/11/20 01:15:14;;;;;;;13.88;12.40;;;;;;;7.02;84.98;99229.84;1719649;81;21784;-66
2021/11/20 01:17:41;;;;;;;14.63;13.13;;;;;;;7.02;85.06;99221.48;1743568;81;20938;-65
2021/11/20 01:20:09;;;;;;;14.28;12.88;;;;;;;7.05;85.06;99224.36;1722037;81;21421;-67
2021/11/20 01:22:37;;;;;;;14.40;12.78;;;;;;;7.05;85.08;99212.06;1736704;82;20965;-65
2021/11/20 01:25:15;;;;;;;14.35;12.50;;;;;;;7.07;85.11;99211.93;1736636;81;21036;-66
2021/11/20 01:27:44;;;;;;;13.78;12.37;;;;;;;7.07;85.12;99197.48;1738481;81;21881;-66
2021/11/20 01:30:18;;;;;;;13.88;12.40;;;;;;;7.08;85.10;99195.21;1733792;81;21060;-65
2021/11/20 01:32:45;;;;;;;13.88;12.13;;;;;;;7.10;85.17;99186.23;1738635;81;21049;-65
2021/11/20 01:35:12;;;;;;;13.32;11.93;;;;;;;7.11;85.21;99181.33;1749562;81;21032;-65
2021/11/20 01:37:41;;;;;;;12.25;10.95;;;;;;;7.13;85.20;99177.27;1743660;81;20992;-65
2021/11/20 01:40:12;;;;;;;12.15;10.93;;;;;;;7.13;85.27;99174.16;1732329;81;21895;-65
2021/11/20 01:42:40;;;;;;;12.73;10.73;;;;;;;7.14;85.24;99171.05;1738316;82;20949;-65
2021/11/20 01:45:15;;;;;;;11.63;10.45;;;;;;;7.14;85.27;99162.72;1737628;82;21448;-66
2021/11/20 01:47:49;;;;;;;;;;;;;;;7.14;85.29;99160.09;1704829;82;21044;-66
2021/11/20 01:50:29;;;;;;;11.65;10.45;;;;;;;7.14;85.41;99152.22;1718578;82;20190;-65
2021/11/20 01:53:13;;;;;;;12.03;10.70;;;;;;;7.14;85.46;99144.34;1697731;82;23832;-66
2021/11/20 01:56:02;;;;;;;12.60;11.30;;;;;;;7.12;85.47;99137.53;1737659;82;20945;-66
2021/11/20 01:58:43;;;;;;;11.48;10.28;;;;;;;7.10;85.48;99128.47;1730854;82;20929;-65
2021/11/20 02:01:20;;;;;;;12.75;10.43;;;;;;;7.10;85.55;99127.64;1736163;82;20996;-65
2021/11/20 02:04:13;;;;;;;12.40;10.05;;;;;;;7.07;85.61;99112.98;1726099;81;20965;-65
2021/11/20 02:06:50;;;;;;;11.28;9.48;;;;;;;7.06;85.64;99107.39;1700795;82;21824;-65
2021/11/20 02:09:34;;;;;;;10.78;9.65;;;;;;;7.06;85.82;99103.45;1743016;80;21661;-65
2021/11/20 02:12:17;;;;;;;11.65;8.73;;;;;;;7.08;85.88;99104.63;1696794;83;20970;-65
2021/11/20 02:14:44;;;;;;;9.43;8.50;;;;;;;7.10;86.01;99098.28;1681836;85;21015;-65
2021/11/20 02:17:20;;;;;;;8.90;8.00;;;;;;;7.11;86.10;99094.69;1689925;84;20980;-65
2021/11/20 02:19:51;;;;;;;10.08;8.13;;;;;;;7.14;86.16;99089.64;1700349;83;22489;-65
2021/11/20 02:22:36;;;;;;;8.40;7.60;;;;;;;7.15;86.24;99086.91;1687181;84;20969;-65
2021/11/20 02:25:02;;;;;;;8.43;7.53;;;;;;;7.18;86.32;99080.56;1673813;85;21106;-65
2021/11/20 02:27:44;;;;;;;8.40;7.50;;;;;;;7.20;86.30;99078.63;1686277;84;21479;-65
2021/11/20 02:30:19;;;;;;;8.75;7.50;;;;;;;7.22;86.31;99066.67;1676064;85;21008;-65
2021/11/20 02:32:52;;;;;;;9.73;7.72;;;;;;;7.23;86.32;99077.04;1685038;84;21008;-65
2021/11/20 02:35:45;;;;;;;7.20;6.50;;;;;;;7.25;86.33;99073.83;1674206;84;21522;-65
2021/11/20 02:38:20;;;;;;;7.40;6.33;;;;;;;7.28;86.35;99065.67;1684811;84;21550;-65
2021/11/20 02:40:47;;;;;;;6.42;5.75;;;;;;;7.34;86.45;99053.33;1679564;84;20988;-65
2021/11/20 02:43:16;;;;;;;6.40;5.80;;;;;;;7.37;86.49;99046.48;1656680;85;21028;-65
2021/11/20 02:45:50;;;;;;;7.45;6.75;;;;;;;7.42;86.43;99045.59;1691146;82;21842;-65
2021/11/20 02:48:17;;;;;;;6.60;5.90;;;;;;;7.43;86.50;99034.59;1698790;82;21506;-65
2021/11/20 02:50:50;;;;;;;5.97;5.37;;;;;;;7.48;86.46;99038.15;1682387;84;21237;-65
2021/11/20 02:53:31;;;;;;;5.62;5.12;;;;;;;7.51;86.49;99037.38;1685767;83;20987;-65
2021/11/20 02:55:57;;;;;;;6.30;5.22;;;;;;;7.53;86.52;99028.91;1711243;82;21385;-65
2021/11/20 02:58:26;;;;;;;6.30;5.37;;;;;;;7.56;86.73;99018.60;1707002;81;22485;-65
2021/11/20 03:01:09;;;;;;;6.03;5.33;;;;;;;7.58;86.69;99008.78;1718866;82;20992;-65
2021/11/20 03:03:37;;;;;;;6.80;5.20;;;;;;;7.60;86.68;99013.41;1701276;82;20996;-65
2021/11/20 03:06:04;;;;;;;5.87;5.22;;;;;;;7.60;86.66;99005.04;1685480;85;21052;-65
2021/11/20 03:08:31;;;;;;;5.87;5.00;;;;;;;7.62;86.73;99000.47;1648775;85;21001;-65
2021/11/20 03:11:00;;;;;;;6.95;5.65;;;;;;;7.64;86.73;99000.36;1717966;83;21777;-65
2021/11/20 03:13:28;;;;;;;5.83;5.22;;;;;;;7.66;86.72;98990.54;1686966;84;20964;-65
2021/11/20 03:15:56;;;;;;;6.30;5.42;;;;;;;7.69;86.75;98995.03;1679918;85;21000;-65
2021/11/20 03:18:22;;;;;;;6.97;6.15;;;;;;;7.73;86.74;99005.63;1672727;83;21054;-65
2021/11/20 03:20:50;;;;;;;6.78;6.08;;;;;;;7.78;86.76;99003.06;1682563;84;20949;-65
2021/11/20 03:23:24;;;;;;;7.40;6.60;;;;;;;7.82;86.76;99005.30;1668215;83;21774;-65
2021/11/20 03:25:52;;;;;;;7.03;6.33;;;;;;;7.87;86.74;98997.81;1695102;84;21006;-65
2021/11/20 03:28:19;;;;;;;7.53;6.20;;;;;;;7.91;86.69;98987.83;1671489;84;20986;-65
2021/11/20 03:30:46;;;;;;;7.55;6.15;;;;;;;7.94;86.65;98984.95;1723853;82;21029;-66
2021/11/20 03:33:13;;;;;;;7.22;6.30;;;;;;;7.96;86.62;98988.27;1729646;83;21048;-65
2021/11/20 03:35:42;;;;;;;8.15;6.72;;;;;;;7.99;86.59;98979.60;1720895;82;21862;-65
2021/11/20 03:38:11;;;;;;;8.20;7.03;;;;;;;8.00;86.55;98991.77;1724256;82;21017;-65
2021/11/20 03:40:38;;;;;;;8.08;7.08;;;;;;;8.02;86.51;98978.52;1694872;84;21392;-65
2021/11/20 03:43:05;;;;;;;10.18;7.75;;;;;;;8.04;86.47;98981.83;1663190;84;21025;-66
2021/11/20 03:45:34;;;;;;;10.82;7.78;;;;;;;8.07;86.46;98980.71;1684879;84;21486;-66
2021/11/20 03:48:02;;;;;;;9.98;7.65;;;;;;;8.10;86.42;98967.27;1659999;86;22539;-65
2021/11/20 03:50:29;;;;;;;8.48;7.53;;;;;;;8.12;86.42;98971.45;1683017;84;20898;-65
2021/11/20 03:52:56;;;;;;;8.00;7.20;;;;;;;8.15;86.43;98970.33;1677464;85;21012;-65
2021/11/20 03:55:29;;;;;;;8.40;7.53;;;;;;;8.18;86.39;98966.09;1675259;85;21120;-65
2021/11/20 03:57:56;;;;;;;8.88;6.75;;;;;;;8.20;86.43;98949.22;1658041;85;21538;-64
2021/11/20 04:00:28;;;;;;;9.38;7.40;;;;;;;8.25;86.42;98947.47;1666675;85;21826;-65
2021/11/20 04:02:54;;;;;;;9.35;7.40;;;;;;;8.27;86.41;98944.20;1675974;85;21013;-65
2021/11/20 04:05:22;;;;;;;8.85;7.30;;;;;;;8.29;86.37;98933.87;1669829;85;21577;-65
2021/11/20 04:07:50;;;;;;;8.40;7.47;;;;;;;8.32;86.34;98954.66;1660059;85;21017;-65
2021/11/20 04:10:18;;;;;;;8.40;7.60;;;;;;;8.35;86.33;98948.79;1673907;85;21076;-66
2021/11/20 04:12:45;;;;;;;8.40;7.55;;;;;;;8.40;86.36;98940.00;1653939;85;21936;-65
2021/11/20 04:15:14;;;;;;;8.10;7.30;;;;;;;8.43;86.32;98944.97;1661197;85;21484;-65
2021/11/20 04:17:41;;;;;;;7.65;6.95;;;;;;;8.46;86.30;98944.67;1664646;84;21080;-66
2021/11/20 04:20:11;;;;;;;7.50;6.70;;;;;;;8.51;86.33;98953.80;1677183;84;21088;-66
2021/11/20 04:22:38;;;;;;;7.37;6.67;;;;;;;8.57;86.33;98945.80;1668966;85;21021;-65
2021/11/20 04:25:08;;;;;;;7.30;6.60;;;;;;;8.64;86.32;98948.21;1700017;82;21864;-66
2021/11/20 04:27:39;;;;;;;8.33;7.15;;;;;;;8.69;86.28;98937.27;1683456;83;21444;-66
2021/11/20 04:30:11;;;;;;;7.58;6.87;;;;;;;8.75;86.22;98940.13;1699603;84;21016;-66
2021/11/20 04:32:39;;;;;;;7.42;6.67;;;;;;;8.81;86.17;98937.41;1697494;84;20985;-66
2021/11/20 04:35:08;;;;;;;7.28;6.45;;;;;;;8.87;86.09;98947.34;1683371;84;21097;-65
2021/11/20 04:37:35;;;;;;;6.70;6.10;;;;;;;8.93;86.03;98936.23;1691223;83;22496;-65
2021/11/20 04:40:04;;;;;;;6.97;6.28;;;;;;;9.00;85.88;98940.44;1694176;83;21096;-66
2021/11/20 04:42:31;;;;;;;7.12;6.42;;;;;;;9.06;85.82;98947.25;1678261;83;20973;-66
2021/11/20 04:44:58;;;;;;;7.28;6.58;;;;;;;9.09;85.66;98936.44;1685813;84;21052;-65
2021/11/20 04:47:26;;;;;;;6.58;5.95;;;;;;;9.13;85.55;98923.30;1692596;83;21130;-66
2021/11/20 04:49:53;;;;;;;6.45;5.85;;;;;;;9.16;85.51;98937.97;1690591;83;21852;-65
2021/11/20 04:52:23;;;;;;;6.47;5.87;;;;;;;9.17;85.52;98922.53;1688074;84;20980;-66
2021/11/20 04:54:50;;;;;;;6.53;5.92;;;;;;;9.20;85.50;98926.67;1697124;83;21012;-66
2021/11/20 04:57:17;;;;;;;7.75;6.40;;;;;;;9.20;85.46;98927.50;1696950;83;21072;-66
2021/11/20 04:59:44;;;;;;;6.80;6.08;;;;;;;9.21;85.46;98927.84;1679431;84;21080;-66
2021/11/20 05:02:13;;;;;;;7.40;6.62;;;;;;;9.21;85.44;98927.84;1690589;83;21851;-66
2021/11/20 05:04:40;;;;;;;7.12;6.15;;;;;;;9.24;85.50;98933.28;1702485;83;21017;-65
2021/11/20 05:07:09;;;;;;;6.35;5.72;;;;;;;9.26;85.55;98933.96;1687298;83;21412;-65
2021/11/20 05:09:36;;;;;;;6.60;5.55;;;;;;;9.26;85.53;98936.11;1711268;83;21016;-65
2021/11/20 05:12:07;;;;;;;6.30;5.70;;;;;;;9.28;85.54;98939.94;1721594;83;20972;-65
2021/11/20 05:14:36;;;;;;;7.53;6.15;;;;;;;9.31;85.55;98926.45;1714516;83;21819;-65
2021/11/20 05:17:04;;;;;;;9.50;6.80;;;;;;;9.33;85.51;98929.77;1690694;83;21017;-66
2021/11/20 05:19:31;;;;;;;6.97;6.28;;;;;;;9.34;85.46;98927.47;1691428;84;20998;-65
2021/11/20 05:21:59;;;;;;;7.00;6.37;;;;;;;9.36;85.44;98932.95;1661926;84;20985;-66
2021/11/20 05:24:26;;;;;;;5.83;5.22;;;;;;;9.41;85.38;98932.48;1688339;83;21048;-66
2021/11/20 05:26:54;;;;;;;6.10;5.50;;;;;;;9.43;85.27;98930.52;1661491;84;21762;-66
2021/11/20 05:31:51;;;;;;;5.37;4.87;;;;;;;9.52;85.08;98939.34;1640330;86;20985;-66
2021/11/20 05:34:17;;;;;;;7.60;4.78;;;;;;;9.53;84.96;98923.38;1660410;85;22582;-65
2021/11/20 05:36:44;;;;;;;5.62;4.85;;;;;;;9.57;84.85;98927.88;1665766;84;21089;-65
2021/11/20 05:39:13;;;;;;;5.70;4.10;;;;;;;9.58;84.73;98927.72;1647149;85;21925;-66
2021/11/20 05:41:42;;;;;;;4.00;3.40;;;;;;;9.63;84.48;98934.66;1657374;84;21307;-65
2021/11/20 05:44:11;;;;;;;4.35;3.95;;;;;;;9.70;84.19;98938.36;1661668;85;20986;-66
2021/11/20 05:46:39;;;;;;;4.28;3.87;;;;;;;9.74;84.00;98923.06;1703036;82;20970;-65
2021/11/20 05:49:07;;;;;;;4.22;3.83;;;;;;;9.78;83.83;98931.52;1711844;83;21016;-65
2021/11/20 05:51:36;;;;;;;4.15;3.75;;;;;;;9.81;83.64;98927.24;1726079;82;21818;-65
2021/11/20 05:54:06;;;;;;;4.78;4.22;;;;;;;9.81;83.41;98920.66;1730559;82;20952;-65
2021/11/20 05:56:33;;;;;;;4.45;4.00;;;;;;;9.83;83.36;98920.83;1720138;82;21024;-65
2021/11/20 05:59:00;;;;;;;4.85;3.87;;;;;;;9.85;83.27;98924.66;1710889;82;21400;-67
2021/11/20 06:01:27;;;;;;;4.15;3.67;;;;;;;9.86;83.18;98921.04;1710971;82;21051;-66
2021/11/20 06:03:53;;;;;;;4.90;3.87;;;;;;;9.86;83.12;98922.36;1708621;84;21915;-66
2021/11/20 06:06:21;;;;;;;5.42;4.22;;;;;;;9.86;83.00;98927.14;1717572;82;20941;-66
2021/11/20 06:08:48;;;;;;;3.92;3.30;;;;;;;9.89;82.94;98924.68;1708771;84;20992;-66
2021/11/20 06:11:17;;;;;;;3.10;2.80;;;;;;;9.91;82.82;98929.30;1674545;85;21040;-65
2021/11/20 06:13:44;;;;;;;4.85;3.00;;;;;;;9.94;82.73;98934.27;1726195;82;21035;-66
2021/11/20 06:16:16;;;;;;;4.92;2.77;;;;;;;9.95;82.55;98943.86;1717633;82;21923;-67
2021/11/20 06:18:43;;;;;;;4.42;2.70;;;;;;;9.97;82.48;98928.21;1712903;82;21059;-68
2021/11/20 06:21:10;;;;;;;4.08;2.75;;;;;;;9.99;82.37;98938.61;1709421;82;21537;-67
2021/11/20 06:23:37;;;;;;;4.85;2.42;;;;;;;10.00;82.27;98935.81;1704289;82;21000;-68
2021/11/20 06:26:06;;;;;;;2.98;2.77;;;;;;;10.03;82.20;98950.00;1722065;82;21043;-67
2021/11/20 06:28:34;;;;;;;2.92;2.47;;;;;;;10.04;82.11;98946.91;1730293;81;21932;-67
2021/11/20 06:31:04;;;;;;;3.85;2.70;;;;;;;10.04;82.06;98943.77;1717844;81;21021;-67
2021/11/20 06:33:33;;;;;;;3.20;2.37;;;;;;;10.06;81.95;98954.16;1732012;81;21032;-67
2021/11/20 06:36:09;;;;;;;3.10;2.72;;;;;;;10.09;81.89;98947.75;1740889;81;21135;-67
2021/11/20 06:38:39;;;;;;;7.65;2.67;;;;;;;10.10;81.70;98948.91;1769144;80;21023;-67
2021/11/20 06:41:07;;;;;;;3.15;2.50;;;;;;;10.15;81.52;98948.46;1737816;82;21820;-67
2021/11/20 06:43:34;;;;;;;3.30;2.55;;;;;;;10.18;81.33;98934.95;1740208;81;21020;-68
2021/11/20 06:46:07;;;;;;;3.17;2.55;;;;;;;10.22;81.16;98936.31;1739129;80;21036;-67
2021/11/20 06:48:35;;;;;;;7.50;2.80;;;;;;;10.27;81.08;98941.97;1736755;81;21016;-67
2021/11/20 06:51:04;;;;;;;3.77;2.30;;;;;;;10.30;80.71;98933.73;1739853;80;21087;-67
2021/11/20 06:53:38;;;;;;;3.92;2.30;;;;;;;10.37;80.55;98932.64;1697481;82;21777;-68
2021/11/20 06:56:14;;;;;;;3.95;2.47;;;;;;;10.43;80.40;98942.09;1758645;81;21565;-68
2021/11/20 07:01:20;;;;;;;2.45;1.90;;;;;;;10.52;79.93;98927.13;1768463;80;21032;-67
2021/11/20 07:03:55;;;;;;;2.92;1.95;;;;;;;10.53;79.49;98936.20;1723821;82;21095;-67
2021/11/20 07:06:27;;;;;;;3.45;1.90;;;;;;;10.61;79.12;98920.88;1748040;81;22650;-67
2021/11/20 07:08:55;;;;;;;2.87;2.10;;;;;;;10.70;78.82;98913.83;1733139;82;21366;-67
2021/11/20 07:11:24;;;;;;;4.17;2.70;;;;;;;10.76;78.39;98923.28;1736932;82;21044;-68
2021/11/20 07:13:53;;;;;;;2.77;1.70;;;;;;;10.80;77.94;98923.28;1732845;81;21039;-67
2021/11/20 07:16:23;;;;;;;6.17;2.77;;;;;;;10.83;77.47;98919.52;1728499;81;21036;-67
2021/11/20 07:18:50;;;;;;;3.87;1.90;;;;;;;10.85;76.92;98932.06;1699508;84;22479;-67
2021/11/20 07:21:35;;;;;;;3.50;1.77;;;;;;;10.91;76.66;98924.02;1685109;83;21501;-67
2021/11/20 07:24:09;;;;;;;3.42;1.90;;;;;;;10.95;76.44;98916.09;1688256;84;21103;-68
2021/11/20 07:26:36;;;;;;;3.00;1.82;;;;;;;10.96;76.42;98926.49;1682624;84;21020;-68
2021/11/20 07:29:05;;;;;;;2.92;2.00;;;;;;;11.00;76.37;98928.31;1691523;83;21052;-67
2021/11/20 07:31:34;;;;;;;4.42;1.77;;;;;;;11.02;76.12;98915.30;1742098;81;21800;-68
2021/11/20 07:34:01;;;;;;;4.47;2.05;;;;;;;11.06;75.81;98890.20;1704507;83;21566;-67
2021/11/20 07:36:28;;;;;;;3.10;2.08;;;;;;;11.13;75.75;98920.28;1707078;83;21020;-66
2021/11/20 07:38:58;;;;;;;4.80;2.10;;;;;;;11.18;75.23;98923.75;1680159;83;22282;-67
2021/11/20 07:41:27;;;;;;;3.35;2.25;;;;;;;11.27;75.38;98917.50;1682402;84;21107;-67
2021/11/20 07:43:55;;;;;;;4.40;2.22;;;;;;;11.32;74.85;98915.20;1693459;84;21903;-66
2021/11/20 07:46:29;;;;;;;5.25;2.20;;;;;;;11.38;74.46;98905.78;1693150;84;21082;-68
2021/11/20 07:48:57;;;;;;;3.47;1.98;;;;;;;11.44;74.15;98914.40;1748816;80;21489;-68
2021/11/20 07:51:25;;;;;;;4.17;2.00;;;;;;;11.49;74.14;98914.75;1750957;82;21055;-68
2021/11/20 07:53:54;;;;;;;4.40;2.20;;;;;;;11.51;73.74;98907.97;1751637;80;22114;-67
2021/11/20 07:56:21;;;;;;;4.08;2.40;;;;;;;11.53;73.42;98908.63;1747210;80;22219;-68
2021/11/20 07:58:50;;;;;;;6.03;3.85;;;;;;;11.55;73.27;98911.44;1744150;80;21056;-68
2021/11/20 08:01:17;;;;;;;7.30;3.80;;;;;;;11.56;72.70;98916.22;1714842;82;21107;-68
2021/11/20 08:03:46;;;;;;;10.98;4.10;;;;;;;11.59;72.77;98910.63;1741511;80;21055;-67
2021/11/20 08:06:29;;;;;;;6.05;3.65;;;;;;;11.60;72.41;98920.22;1735908;80;21043;-68
2021/11/20 08:09:03;;;;;;;3.52;1.85;;;;;;;11.63;72.13;98912.77;1743748;80;21844;-69
2021/11/20 08:11:32;;;;;;;5.00;2.45;;;;;;;11.69;71.74;98920.55;1720906;82;21046;-68
2021/11/20 08:14:00;;;;;;;3.92;2.10;;;;;;;11.77;71.79;98923.18;1747745;82;21059;-67
2021/11/20 08:16:37;;;;;;;6.05;3.50;;;;;;;11.84;71.23;98924.21;1737765;80;21012;-67
2021/11/20 08:19:17;;;;;;;6.92;4.05;;;;;;;11.91;71.13;98924.39;1761468;80;37283;-68
2021/11/20 08:21:52;;;;;;;5.60;2.77;;;;;;;11.96;70.41;98929.99;1695535;83;21828;-67
2021/11/20 08:24:21;;;;;;;5.45;1.72;;;;;;;12.03;69.65;98936.28;1722709;80;21123;-67
2021/11/20 08:26:48;;;;;;;3.85;1.90;;;;;;;12.05;68.79;98925.03;1722802;81;21008;-67
2021/11/20 08:29:19;;;;;;;4.45;2.60;;;;;;;12.09;68.75;98922.90;1738873;82;21005;-65
2021/11/20 08:31:48;;;;;;;3.62;1.77;;;;;;;12.14;68.77;98910.80;1737328;80;21028;-66
2021/11/20 08:34:21;;;;;;;8.13;4.10;;;;;;;12.16;68.33;98908.84;1737488;82;24529;-66
2021/11/20 08:36:53;;;;;;;9.03;4.28;;;;;;;12.22;68.35;98920.55;1736098;80;21376;-66
2021/11/20 08:39:34;;;;;;;9.30;5.50;;;;;;;12.23;67.33;98911.12;1707043;83;21032;-66
2021/11/20 08:42:01;;;;;;;6.47;2.67;;;;;;;12.24;66.98;98907.97;1705877;84;20949;-66
2021/11/20 08:44:29;;;;;;;9.80;6.15;;;;;;;12.25;66.96;98903.83;1733358;82;21093;-66
2021/11/20 08:46:57;;;;;;;9.13;3.80;;;;;;;12.26;66.85;98901.54;1743176;81;21858;-66
2021/11/20 08:49:25;;;;;;;9.30;4.30;;;;;;;12.24;66.05;98907.97;1745060;82;21431;-66
2021/11/20 08:51:52;;;;;;;10.32;4.45;;;;;;;12.22;65.23;98919.23;1746450;82;20996;-66
2021/11/20 08:54:21;;;;;;;6.85;2.87;;;;;;;12.27;64.78;98921.72;1749662;80;20964;-66
2021/11/20 08:56:53;;;;;;;7.15;3.08;;;;;;;12.27;63.00;98909.80;1750871;80;20962;-66
2021/11/20 08:59:23;;;;;;;7.25;2.72;;;;;;;12.25;62.59;98936.09;1740828;80;21819;-66
2021/11/20 09:02:17;;;;;;;7.80;2.40;;;;;;;12.22;62.61;98907.32;1777465;80;21392;-66
2021/11/20 09:04:57;;;;;;;3.92;1.82;;;;;;;12.23;63.03;98918.23;1740955;80;21868;-66
2021/11/20 09:07:34;;;;;;;8.35;4.00;;;;;;;12.31;63.29;98909.78;1708224;81;21134;-66
2021/11/20 09:10:19;;;;;;;6.92;2.47;;;;;;;12.48;63.46;98923.00;1732481;80;21379;-66
2021/11/20 09:13:12;;;;;;;10.72;3.45;;;;;;;12.55;61.58;98908.09;1745810;82;21826;-65
2021/11/20 09:15:51;;;;;;;6.47;3.37;;;;;;;12.56;61.82;98921.16;1746435;82;21008;-66
2021/11/20 09:18:26;;;;;;;3.90;2.00;;;;;;;12.52;61.73;98914.53;1704535;83;21379;-66
2021/11/20 09:20:52;;;;;;;6.40;1.82;;;;;;;12.46;61.86;98915.73;1707529;82;20958;-65
2021/11/20 09:23:39;;;;;;;4.85;1.95;;;;;;;12.41;61.75;98908.27;1705338;82;21024;-66
2021/11/20 09:26:07;;;;;;;5.67;1.90;;;;;;;12.37;62.18;98908.30;1703069;83;22454;-66
2021/11/20 09:28:36;;;;;;;7.75;2.33;;;;;;;12.33;62.26;98909.61;1672961;85;21092;-68
2021/11/20 09:31:06;;;;;;;9.05;2.05;;;;;;;12.31;62.57;98903.16;1656509;84;21574;-68
2021/11/20 09:33:35;;;;;;;6.42;2.12;;;;;;;12.41;62.46;98895.03;1680926;85;21026;-67
2021/11/20 09:36:04;;;;;;;3.77;1.67;;;;;;;12.55;62.16;98882.93;1665919;85;20973;-66
2021/11/20 09:38:36;;;;;;;7.05;1.90;;;;;;;12.59;60.77;98907.56;1662158;84;21869;-66
2021/11/20 09:41:11;;;;;;;5.58;1.85;;;;;;;12.63;61.05;98905.89;1674782;85;20971;-66
2021/11/20 09:43:40;;;;;;;5.60;2.10;;;;;;;12.66;61.02;98894.47;1676189;85;21010;-66
2021/11/20 09:46:21;;;;;;;8.85;1.80;;;;;;;12.68;60.90;98882.38;1676237;85;21024;-66
2021/11/20 09:49:00;;;;;;;6.25;2.42;;;;;;;12.71;60.97;98879.38;1676010;85;20973;-66
2021/11/20 09:51:38;;;;;;;7.47;2.47;;;;;;;12.68;60.25;98885.85;1706467;83;21552;-66
2021/11/20 09:54:09;;;;;;;6.67;2.08;;;;;;;12.69;60.56;98889.33;1667825;84;21081;-66
2021/11/20 09:57:12;;;;;;;4.15;1.98;;;;;;;12.64;60.50;98887.17;1645529;87;21018;-66
2021/11/20 10:00:05;;;;;;;8.55;2.80;;;;;;;12.62;60.21;98890.50;1668658;85;20961;-66
2021/11/20 10:02:51;;;;;;;6.83;1.92;;;;;;;12.62;59.99;98893.14;1579322;85;21564;-66
2021/11/20 10:05:35;;;;;;;6.35;2.25;;;;;;;12.72;59.37;98899.56;1676171;85;22651;-66
2021/11/20 10:08:08;;;;;;;;;;;;;;;12.79;59.36;98896.56;1675739;84;20993;-66
2021/11/20 10:10:46;;;;;;;6.87;2.10;;;;;;;12.81;59.03;98899.86;1648889;87;20151;-64
2021/11/20 10:13:21;;;;;;;9.15;2.08;;;;;;;12.80;58.90;98887.12;1658453;86;20977;-66
2021/11/20 10:16:15;;;;;;;8.48;2.15;;;;;;;12.80;58.44;98901.69;1674684;84;21014;-66
2021/11/20 10:18:59;;;;;;;7.85;1.90;;;;;;;12.85;58.49;98894.56;1667760;84;21834;-66
2021/11/20 10:21:35;;;;;;;7.25;2.08;;;;;;;12.99;58.38;98925.63;1686835;84;21458;-66
2021/11/20 10:24:37;;;;;;;8.93;2.02;;;;;;;13.19;57.86;98904.84;1681929;85;20972;-66
2021/11/20 10:27:21;;;;;;;7.17;2.30;;;;;;;13.35;56.84;98921.17;1677393;85;21036;-65
2021/11/20 10:30:12;;;;;;;6.65;2.10;;;;;;;13.32;56.37;98921.03;1679822;85;21060;-66
2021/11/20 10:32:59;;;;;;;5.40;2.27;;;;;;;13.22;56.61;98915.59;1679817;85;22041;-66
2021/11/20 10:35:36;;;;;;;5.58;1.92;;;;;;;13.13;56.66;98920.11;1684473;84;21480;-66
2021/11/20 10:38:27;;;;;;;9.43;2.08;;;;;;;12.94;56.48;98921.86;1708973;84;21136;-66
2021/11/20 10:41:08;;;;;;;7.45;1.90;;;;;;;12.83;56.42;98925.19;1732872;82;21028;-65
2021/11/20 10:43:40;;;;;;;7.67;2.12;;;;;;;12.82;56.66;98922.21;1710249;83;21078;-65
2021/11/20 10:46:20;;;;;;;5.72;1.90;;;;;;;12.83;56.48;98921.71;1710859;84;21852;-65
2021/11/20 10:49:31;;;;;;;6.17;1.77;;;;;;;12.89;56.01;98917.06;1700589;84;21109;-65
2021/11/20 10:52:11;;;;;;;6.55;1.72;;;;;;;12.93;55.60;98927.63;1681754;85;21008;-65
2021/11/20 10:54:52;;;;;;;9.53;1.80;;;;;;;12.87;55.00;98914.59;1672579;84;21057;-65
2021/11/20 10:58:15;;;;;;;6.90;2.08;;;;;;;12.80;55.28;98924.71;1683416;84;20967;-66
2021/11/20 11:01:17;;;;;;;7.10;2.05;;;;;;;12.78;55.57;98929.36;1677069;85;21809;-66
2021/11/20 11:03:48;;;;;;;6.47;1.77;;;;;;;12.83;55.09;98929.66;1676586;85;21039;-65
2021/11/20 11:06:35;;;;;;;8.33;2.27;;;;;;;13.03;54.63;98929.60;1692014;84;21048;-66
2021/11/20 11:09:27;;;;;;;5.67;2.08;;;;;;;13.18;53.57;98929.18;1703978;84;21033;-66
2021/11/20 11:12:18;;;;;;;6.45;1.82;;;;;;;13.30;53.22;98926.98;1705167;84;21107;-66
2021/11/20 11:15:16;;;;;;;7.12;2.08;;;;;;;13.33;52.94;98938.59;1691464;84;21869;-66
2021/11/20 11:18:15;;;;;;;7.42;1.70;;;;;;;13.37;52.86;98936.41;1677794;84;20965;-66
2021/11/20 11:21:35;;;;;;;5.95;1.85;;;;;;;13.43;51.79;98952.96;1658175;85;21499;-65
2021/11/20 11:24:26;;;;;;;4.65;1.80;;;;;;;13.40;51.96;98957.27;1674987;85;20975;-65
2021/11/20 11:27:10;;;;;;;7.12;1.82;;;;;;;13.32;52.11;98954.69;1680485;85;21137;-65
2021/11/20 11:29:59;;;;;;;6.83;1.92;;;;;;;13.14;51.91;98958.88;1674844;85;22781;-65
2021/11/20 11:32:28;;;;;;;6.03;2.00;;;;;;;13.02;51.65;98957.08;1690228;84;21058;-65
2021/11/20 11:35:01;;;;;;;6.83;1.67;;;;;;;12.98;52.05;98961.58;1663602;84;21045;-65
2021/11/20 11:37:45;;;;;;;6.85;1.65;;;;;;;13.09;50.83;98969.98;1703977;83;21023;-65
2021/11/20 11:40:56;;;;;;;6.10;1.80;;;;;;;13.24;48.71;98978.08;1691217;84;21016;-65
2021/11/20 11:43:40;;;;;;;6.83;1.77;;;;;;;13.39;48.55;98976.83;1642159;85;21810;-65
2021/11/20 11:46:15;;;;;;;6.03;1.65;;;;;;;13.58;47.24;98976.89;1678733;84;21017;-65
2021/11/20 11:48:47;;;;;;;7.95;1.90;;;;;;;13.53;47.11;98969.48;1711073;83;21443;-65
2021/11/20 11:51:45;;;;;;;7.55;2.02;;;;;;;13.36;47.68;98968.73;1710808;83;21099;-65
2021/11/20 11:54:26;;;;;;;6.00;1.62;;;;;;;13.23;48.40;98978.26;1711580;83;21429;-65
2021/11/20 11:57:10;;;;;;;6.03;1.60;;;;;;;13.31;47.94;98974.22;1726432;82;21884;-66
2021/11/20 11:59:43;;;;;;;5.50;1.67;;;;;;;13.49;47.84;98972.13;1671496;85;21020;-66
2021/11/20 12:02:48;;;;;;;7.33;2.10;;;;;;;13.55;47.12;98981.23;1692628;84;21016;-66
2021/11/20 12:05:26;;;;;;;5.53;1.62;;;;;;;13.39;47.44;98994.90;1672034;84;21049;-66
2021/11/20 12:08:32;;;;;;;6.33;2.30;;;;;;;13.11;48.23;99005.59;1679135;85;20972;-66